Time;durP1;ratioP1;P1;durP2;ratioP2;P2;SDS_P1;SDS_P2;PMS_P1;PMS_P2;Temp;Humidity;BMP_temperature;BMP_pressure;BME280_temperature;BME280_humidity;BME280_pressure;Samples;Min_cycle;Max_cycle;Signal;HPM_P1;HPM_P2
2022/03/18 00:00:20;;;;;;;0.70;0.70;;;;;;;;;;5054138;28;20285;-80
2022/03/18 00:02:47;;;;;;;0.77;0.77;;;;;;;;;;5049324;28;20201;-79
2022/03/18 00:05:14;;;;;;;0.70;0.60;;;;;;;;;;5037979;28;20240;-80
2022/03/18 00:07:42;;;;;;;0.65;0.60;;;;;;;;;;5054932;28;20607;-80
2022/03/18 00:10:11;;;;;;;0.70;0.70;;;;;;;;;;5056380;28;20643;-79
2022/03/18 00:12:38;;;;;;;0.70;0.70;;;;;;;;;;5053704;28;20226;-80
2022/03/18 00:15:09;;;;;;;0.70;0.70;;;;;;;;;;5055345;28;20243;-80
2022/03/18 00:17:36;;;;;;;0.60;0.60;;;;;;;;;;5055497;28;20228;-80
2022/03/18 00:20:03;;;;;;;0.60;0.60;;;;;;;;;;5054922;28;20682;-80
2022/03/18 00:22:30;;;;;;;0.70;0.70;;;;;;;;;;5054263;28;20213;-80
2022/03/18 00:24:58;;;;;;;0.70;0.70;;;;;;;;;;5055166;28;20201;-78
2022/03/18 00:27:26;;;;;;;0.80;0.80;;;;;;;;;;5038205;28;20280;-79
2022/03/18 00:29:54;;;;;;;1.00;1.00;;;;;;;;;;5055531;28;20207;-81
2022/03/18 00:32:21;;;;;;;0.60;0.60;;;;;;;;;;5054201;28;20280;-79
2022/03/18 00:34:48;;;;;;;0.68;0.68;;;;;;;;;;5071947;28;20209;-81
2022/03/18 00:37:15;;;;;;;0.80;0.80;;;;;;;;;;5054284;28;20209;-80
2022/03/18 00:39:42;;;;;;;0.60;0.60;;;;;;;;;;5052673;28;20244;-80
2022/03/18 00:42:11;;;;;;;0.70;0.70;;;;;;;;;;5055788;28;20301;-81
2022/03/18 00:44:40;;;;;;;0.80;0.80;;;;;;;;;;5053378;28;20201;-80
2022/03/18 00:52:03;;;;;;;0.70;0.70;;;;;;;;;;5054296;28;20185;-80
2022/03/18 00:52:39;;;;;;;0.60;0.60;;;;;;;;;;5053705;28;20247;-80
2022/03/18 00:55:09;;;;;;;0.70;0.65;;;;;;;;;;5053628;28;20259;-80
2022/03/18 00:57:37;;;;;;;0.70;0.70;;;;;;;;;;5053593;28;20200;-80
2022/03/18 01:00:23;;;;;;;0.70;0.70;;;;;;;;;;5043122;28;20208;-80
2022/03/18 01:02:50;;;;;;;0.70;0.70;;;;;;;;;;5054878;28;20657;-80
2022/03/18 01:05:18;;;;;;;0.60;0.50;;;;;;;;;;5054720;28;20192;-81
2022/03/18 01:07:48;;;;;;;0.70;0.70;;;;;;;;;;5054973;28;20701;-81
2022/03/18 01:10:15;;;;;;;0.70;0.60;;;;;;;;;;5055603;28;20646;-80
2022/03/18 01:12:43;;;;;;;0.70;0.70;;;;;;;;;;5068576;28;20221;-81
2022/03/18 01:15:10;;;;;;;0.60;0.60;;;;;;;;;;5053533;28;20267;-81
2022/03/18 01:17:38;;;;;;;0.80;0.80;;;;;;;;;;5054159;28;20193;-80
2022/03/18 01:20:05;;;;;;;0.80;0.80;;;;;;;;;;5051218;28;20232;-80
2022/03/18 01:22:32;;;;;;;0.70;0.70;;;;;;;;;;5035494;28;20239;-80
2022/03/18 01:24:59;;;;;;;0.70;0.70;;;;;;;;;;5053915;28;20247;-80
2022/03/18 01:27:26;;;;;;;0.80;0.80;;;;;;;;;;5053090;28;20225;-81
2022/03/18 01:29:52;;;;;;;0.70;0.70;;;;;;;;;;5054297;28;20217;-80
2022/03/18 01:32:19;;;;;;;0.70;0.65;;;;;;;;;;5049153;28;20670;-80
2022/03/18 01:34:47;;;;;;;0.65;0.60;;;;;;;;;;5053345;28;20284;-81
2022/03/18 01:37:14;;;;;;;0.70;0.70;;;;;;;;;;5053553;28;20245;-80
2022/03/18 01:39:41;;;;;;;0.80;0.80;;;;;;;;;;5052511;28;20372;-82
2022/03/18 01:42:10;;;;;;;0.70;0.70;;;;;;;;;;5054236;28;20182;-80
2022/03/18 01:44:39;;;;;;;3.60;2.17;;;;;;;;;;5034031;28;20255;-81
2022/03/18 01:47:11;;;;;;;0.70;0.70;;;;;;;;;;5045296;28;20216;-81
2022/03/18 01:49:40;;;;;;;0.73;0.73;;;;;;;;;;5053810;28;20193;-81
2022/03/18 01:52:11;;;;;;;0.73;0.73;;;;;;;;;;5052959;28;20213;-81
2022/03/18 01:54:48;;;;;;;0.70;0.70;;;;;;;;;;5053072;28;20581;-79
2022/03/18 01:57:18;;;;;;;0.60;0.60;;;;;;;;;;5051372;28;20586;-80
2022/03/18 01:59:47;;;;;;;1.00;1.00;;;;;;;;;;5069347;28;20229;-80
2022/03/18 02:02:16;;;;;;;0.70;0.70;;;;;;;;;;5053350;28;20219;-76
2022/03/18 02:04:48;;;;;;;0.70;0.70;;;;;;;;;;5058495;28;20256;-80
2022/03/18 02:07:26;;;;;;;0.70;0.68;;;;;;;;;;5034191;28;20225;-80
2022/03/18 02:09:55;;;;;;;0.70;0.70;;;;;;;;;;5035202;28;20190;-80
2022/03/18 02:12:23;;;;;;;0.68;0.65;;;;;;;;;;5039889;28;20189;-80
2022/03/18 02:14:53;;;;;;;0.70;0.70;;;;;;;;;;5043021;28;20178;-81
2022/03/18 02:17:23;;;;;;;0.60;0.60;;;;;;;;;;5052555;28;20185;-79
2022/03/18 02:19:57;;;;;;;0.70;0.70;;;;;;;;;;5036918;28;20263;-80
2022/03/18 02:22:28;;;;;;;0.70;0.70;;;;;;;;;;5051670;28;20312;-80
2022/03/18 02:25:02;;;;;;;0.70;0.70;;;;;;;;;;5052665;28;20216;-80
2022/03/18 02:27:32;;;;;;;0.60;0.60;;;;;;;;;;5052440;28;20227;-79
2022/03/18 02:30:01;;;;;;;0.70;0.70;;;;;;;;;;5051775;28;20209;-79
2022/03/18 02:32:31;;;;;;;0.65;0.60;;;;;;;;;;5052222;28;20206;-81
2022/03/18 02:35:03;;;;;;;0.70;0.70;;;;;;;;;;5053188;28;20208;-81
2022/03/18 02:37:33;;;;;;;0.70;0.70;;;;;;;;;;5052377;28;20209;-81
2022/03/18 02:40:09;;;;;;;0.95;0.95;;;;;;;;;;5066648;28;20210;-78
2022/03/18 02:42:38;;;;;;;0.70;0.70;;;;;;;;;;5052846;28;20185;-81
2022/03/18 02:45:08;;;;;;;0.60;0.60;;;;;;;;;;5036899;28;20208;-79
2022/03/18 02:47:42;;;;;;;0.80;0.80;;;;;;;;;;5053618;28;20174;-80
2022/03/18 02:50:12;;;;;;;0.60;0.60;;;;;;;;;;5053302;28;20178;-80
2022/03/18 02:52:41;;;;;;;0.70;0.70;;;;;;;;;;5035599;28;20217;-79
2022/03/18 02:55:11;;;;;;;0.60;0.60;;;;;;;;;;5015816;28;20208;-80
2022/03/18 02:57:40;;;;;;;0.60;0.60;;;;;;;;;;5033268;28;20655;-80
2022/03/18 03:00:10;;;;;;;0.65;0.60;;;;;;;;;;5034787;28;20213;-80
2022/03/18 03:08:54;;;;;;;0.70;0.70;;;;;;;;;;5051846;28;20197;-80
2022/03/18 03:11:25;;;;;;;0.70;0.70;;;;;;;;;;5050195;28;20193;-81
2022/03/18 03:13:57;;;;;;;0.60;0.60;;;;;;;;;;5051880;28;20197;-80
2022/03/18 03:16:31;;;;;;;0.60;0.60;;;;;;;;;;5068659;28;20189;-80
2022/03/18 03:19:03;;;;;;;0.70;0.70;;;;;;;;;;5055734;28;20231;-81
2022/03/18 03:21:34;;;;;;;0.70;0.70;;;;;;;;;;5055375;28;20217;-79
2022/03/18 03:24:08;;;;;;;0.70;0.70;;;;;;;;;;5056611;28;20634;-80
2022/03/18 03:26:38;;;;;;;0.70;0.70;;;;;;;;;;5056096;28;20189;-80
2022/03/18 03:29:06;;;;;;;0.68;0.68;;;;;;;;;;5056325;28;20207;-78
2022/03/18 03:31:38;;;;;;;0.70;0.70;;;;;;;;;;5055999;28;20228;-81
2022/03/18 03:34:08;;;;;;;0.60;0.57;;;;;;;;;;5055422;28;20212;-78
2022/03/18 03:36:37;;;;;;;0.60;0.60;;;;;;;;;;5056043;28;20778;-81
2022/03/18 03:39:06;;;;;;;0.60;0.60;;;;;;;;;;5055774;28;20197;-82
2022/03/18 03:41:34;;;;;;;0.70;0.60;;;;;;;;;;5053989;28;20201;-79
2022/03/18 03:44:04;;;;;;;0.60;0.60;;;;;;;;;;5070101;28;20197;-80
2022/03/18 03:46:33;;;;;;;0.60;0.60;;;;;;;;;;5039458;28;20284;-80
2022/03/18 03:49:00;;;;;;;0.63;0.60;;;;;;;;;;5056592;28;20609;-81
2022/03/18 03:51:26;;;;;;;0.70;0.70;;;;;;;;;;5054609;28;20210;-80
2022/03/18 03:53:53;;;;;;;0.70;0.70;;;;;;;;;;5055406;28;20197;-80
2022/03/18 03:56:20;;;;;;;0.60;0.60;;;;;;;;;;5053956;28;20224;-80
2022/03/18 03:58:48;;;;;;;0.70;0.70;;;;;;;;;;5055385;28;20217;-79
2022/03/18 04:01:16;;;;;;;0.70;0.70;;;;;;;;;;5056996;28;20212;-80
2022/03/18 04:03:47;;;;;;;1.25;1.15;;;;;;;;;;5055644;28;20189;-80
2022/03/18 04:06:15;;;;;;;0.70;0.70;;;;;;;;;;5056242;28;20301;-80
2022/03/18 04:08:42;;;;;;;0.70;0.70;;;;;;;;;;5055570;28;20217;-80
2022/03/18 04:11:09;;;;;;;0.60;0.60;;;;;;;;;;5056318;28;20217;-79
2022/03/18 04:13:35;;;;;;;0.70;0.70;;;;;;;;;;5054571;28;20553;-80
2022/03/18 04:16:02;;;;;;;0.70;0.70;;;;;;;;;;5056498;28;20189;-80
2022/03/18 04:18:31;;;;;;;0.68;0.63;;;;;;;;;;5056285;28;20221;-80
2022/03/18 04:20:57;;;;;;;0.60;0.60;;;;;;;;;;5054847;28;20307;-80
2022/03/18 04:23:24;;;;;;;0.73;0.73;;;;;;;;;;5034852;28;20666;-78
2022/03/18 04:25:51;;;;;;;0.70;0.70;;;;;;;;;;5038213;28;20190;-80
2022/03/18 04:28:18;;;;;;;0.60;0.60;;;;;;;;;;5055079;28;20247;-81
2022/03/18 04:30:45;;;;;;;0.65;0.60;;;;;;;;;;5054765;28;20536;-80
2022/03/18 04:33:11;;;;;;;0.60;0.60;;;;;;;;;;5054863;28;20194;-79
2022/03/18 04:35:40;;;;;;;0.65;0.63;;;;;;;;;;5053979;28;20189;-79
2022/03/18 04:38:06;;;;;;;0.80;0.80;;;;;;;;;;5038662;28;20190;-81
2022/03/18 04:40:33;;;;;;;0.80;0.80;;;;;;;;;;5037078;28;20311;-81
2022/03/18 04:43:00;;;;;;;0.70;0.70;;;;;;;;;;5054090;28;20193;-82
2022/03/18 04:45:27;;;;;;;0.70;0.70;;;;;;;;;;5056078;28;20185;-81
2022/03/18 04:47:55;;;;;;;0.88;0.88;;;;;;;;;;5054378;28;20669;-79
2022/03/18 04:50:22;;;;;;;0.73;0.73;;;;;;;;;;5055937;28;20170;-79
2022/03/18 04:52:50;;;;;;;0.80;0.80;;;;;;;;;;5037147;28;20217;-80
2022/03/18 04:55:17;;;;;;;0.60;0.60;;;;;;;;;;5054186;28;20192;-79
2022/03/18 04:57:44;;;;;;;0.70;0.70;;;;;;;;;;5038533;28;20228;-79
2022/03/18 05:00:11;;;;;;;0.70;0.70;;;;;;;;;;5054100;28;20212;-80
2022/03/18 05:02:38;;;;;;;0.70;0.65;;;;;;;;;;5053522;28;20186;-79
2022/03/18 05:05:08;;;;;;;0.75;0.75;;;;;;;;;;5054134;28;20235;-79
2022/03/18 05:07:35;;;;;;;0.70;0.70;;;;;;;;;;5054857;28;20217;-78
2022/03/18 05:10:05;;;;;;;0.60;0.60;;;;;;;;;;5054115;28;20220;-79
2022/03/18 05:12:32;;;;;;;0.70;0.68;;;;;;;;;;5051871;28;20631;-80
2022/03/18 05:14:59;;;;;;;0.68;0.60;;;;;;;;;;5051826;28;20201;-81
2022/03/18 05:17:26;;;;;;;0.70;0.70;;;;;;;;;;5053828;28;20199;-80
2022/03/18 05:19:57;;;;;;;0.60;0.60;;;;;;;;;;5054939;28;20209;-80
2022/03/18 05:22:24;;;;;;;0.70;0.70;;;;;;;;;;5053639;28;20221;-79
2022/03/18 05:24:52;;;;;;;0.73;0.73;;;;;;;;;;5053244;28;20284;-78
2022/03/18 05:27:20;;;;;;;0.70;0.70;;;;;;;;;;5036544;28;20712;-80
2022/03/18 05:29:47;;;;;;;0.70;0.65;;;;;;;;;;5052114;28;20666;-79
2022/03/18 05:32:14;;;;;;;0.68;0.65;;;;;;;;;;5054923;28;20231;-81
2022/03/18 05:34:41;;;;;;;0.70;0.70;;;;;;;;;;5055505;28;20221;-79
2022/03/18 05:37:08;;;;;;;0.70;0.70;;;;;;;;;;5055800;28;20210;-79
2022/03/18 05:39:35;;;;;;;0.60;0.60;;;;;;;;;;5054621;28;20193;-79
2022/03/18 05:42:02;;;;;;;0.60;0.60;;;;;;;;;;5051607;28;20251;-79
2022/03/18 05:44:30;;;;;;;0.68;0.60;;;;;;;;;;5054706;28;20264;-79
2022/03/18 05:46:57;;;;;;;0.63;0.60;;;;;;;;;;5054215;28;20197;-77
2022/03/18 05:49:25;;;;;;;0.65;0.65;;;;;;;;;;5052504;28;20216;-78
2022/03/18 05:51:52;;;;;;;0.60;0.60;;;;;;;;;;5052811;28;20220;-78
2022/03/18 05:54:19;;;;;;;0.60;0.60;;;;;;;;;;5055573;28;20225;-80
2022/03/18 05:56:54;;;;;;;0.63;0.60;;;;;;;;;;5047155;28;20213;-79
2022/03/18 05:59:22;;;;;;;0.70;0.70;;;;;;;;;;5043476;28;20746;-79
2022/03/18 06:01:52;;;;;;;0.60;0.60;;;;;;;;;;5053754;28;20265;-79
2022/03/18 06:04:19;;;;;;;0.70;0.70;;;;;;;;;;5053052;28;20217;-79
2022/03/18 06:06:47;;;;;;;0.85;0.85;;;;;;;;;;5067686;28;20211;-78
2022/03/18 06:12:00;;;;;;;0.70;0.70;;;;;;;;;;5051032;28;20193;-78
2022/03/18 06:14:29;;;;;;;0.70;0.70;;;;;;;;;;5052479;28;20217;-79
2022/03/18 06:16:59;;;;;;;0.70;0.70;;;;;;;;;;5068634;28;20190;-80
2022/03/18 06:19:26;;;;;;;0.60;0.60;;;;;;;;;;5052638;28;20244;-79
2022/03/18 06:21:54;;;;;;;0.60;0.60;;;;;;;;;;5053757;28;20311;-79
2022/03/18 06:24:21;;;;;;;0.73;0.73;;;;;;;;;;5070712;28;20196;-79
2022/03/18 06:26:49;;;;;;;0.60;0.60;;;;;;;;;;5054404;28;20224;-81
2022/03/18 06:29:15;;;;;;;0.70;0.70;;;;;;;;;;5054893;28;20186;-80
2022/03/18 06:31:42;;;;;;;0.60;0.50;;;;;;;;;;5053012;28;20199;-81
2022/03/18 06:34:11;;;;;;;0.70;0.70;;;;;;;;;;5052734;28;20231;-81
2022/03/18 06:36:40;;;;;;;0.60;0.60;;;;;;;;;;5056707;28;20340;-81
2022/03/18 06:39:07;;;;;;;0.70;0.70;;;;;;;;;;5072905;28;20182;-80
2022/03/18 06:41:34;;;;;;;0.60;0.50;;;;;;;;;;5061395;28;20217;-79
2022/03/18 06:44:01;;;;;;;0.70;0.70;;;;;;;;;;5048212;28;20209;-77
2022/03/18 06:46:28;;;;;;;0.70;0.70;;;;;;;;;;5061617;28;20205;-77
2022/03/18 06:48:55;;;;;;;0.60;0.60;;;;;;;;;;5053171;28;20197;-80
2022/03/18 06:51:24;;;;;;;0.70;0.70;;;;;;;;;;5056029;28;20686;-80
2022/03/18 06:53:53;;;;;;;0.60;0.60;;;;;;;;;;5059663;28;20216;-79
2022/03/18 06:56:19;;;;;;;0.88;0.88;;;;;;;;;;5058626;28;20185;-79
2022/03/18 06:58:47;;;;;;;1.30;1.20;;;;;;;;;;5053987;28;20197;-80
2022/03/18 07:01:17;;;;;;;0.80;0.80;;;;;;;;;;5055964;28;20759;-80
2022/03/18 07:03:45;;;;;;;0.80;0.80;;;;;;;;;;5053916;28;20532;-81
2022/03/18 07:06:13;;;;;;;0.68;0.68;;;;;;;;;;5048983;28;20222;-79
2022/03/18 07:08:42;;;;;;;0.70;0.70;;;;;;;;;;5053391;28;20201;-79
2022/03/18 07:11:13;;;;;;;0.60;0.60;;;;;;;;;;5055186;28;20189;-80
2022/03/18 07:13:41;;;;;;;0.70;0.70;;;;;;;;;;5052061;28;20658;-80
2022/03/18 07:18:54;;;;;;;0.60;0.60;;;;;;;;;;5053152;28;20205;-80
2022/03/18 07:21:21;;;;;;;0.60;0.60;;;;;;;;;;5051639;28;20213;-81
2022/03/18 07:23:50;;;;;;;0.60;0.60;;;;;;;;;;5050897;28;20240;-80
2022/03/18 07:26:16;;;;;;;0.70;0.70;;;;;;;;;;5052030;28;20646;-81
2022/03/18 07:28:46;;;;;;;0.60;0.60;;;;;;;;;;5051849;28;20201;-79
2022/03/18 07:31:12;;;;;;;0.70;0.70;;;;;;;;;;5053496;28;20250;-79
2022/03/18 07:33:39;;;;;;;0.60;0.60;;;;;;;;;;5052856;28;20200;-78
2022/03/18 07:36:06;;;;;;;0.60;0.60;;;;;;;;;;5052573;28;20685;-79
2022/03/18 07:38:33;;;;;;;0.60;0.50;;;;;;;;;;5051634;28;20197;-78
2022/03/18 07:41:01;;;;;;;0.90;0.90;;;;;;;;;;5049805;28;20753;-78
2022/03/18 07:43:27;;;;;;;0.60;0.60;;;;;;;;;;5067181;28;20287;-79
2022/03/18 07:45:55;;;;;;;0.60;0.60;;;;;;;;;;5052064;28;20320;-79
2022/03/18 07:48:26;;;;;;;0.60;0.50;;;;;;;;;;5050349;28;20277;-79
2022/03/18 07:50:54;;;;;;;0.60;0.60;;;;;;;;;;5046952;28;20300;-79
2022/03/18 07:53:21;;;;;;;0.55;0.50;;;;;;;;;;5051354;28;20197;-80
2022/03/18 07:55:48;;;;;;;0.57;0.50;;;;;;;;;;5051391;28;20268;-80
2022/03/18 07:58:16;;;;;;;0.60;0.60;;;;;;;;;;5047084;28;20193;-79
2022/03/18 08:00:45;;;;;;;0.50;0.50;;;;;;;;;;5050827;28;20301;-79
2022/03/18 08:03:13;;;;;;;0.50;0.40;;;;;;;;;;5054745;28;20189;-78
2022/03/18 08:05:41;;;;;;;0.87;0.80;;;;;;;;;;5038494;28;20443;-79
2022/03/18 08:08:08;;;;;;;0.60;0.60;;;;;;;;;;5054939;28;20444;-80
2022/03/18 08:10:35;;;;;;;0.60;0.60;;;;;;;;;;5057552;28;20550;-79
2022/03/18 08:13:02;;;;;;;0.60;0.50;;;;;;;;;;5057317;28;20454;-79
2022/03/18 08:15:31;;;;;;;0.60;0.50;;;;;;;;;;5058974;28;20493;-80
2022/03/18 08:17:58;;;;;;;0.60;0.50;;;;;;;;;;5054581;28;20470;-79
2022/03/18 08:20:25;;;;;;;0.60;0.50;;;;;;;;;;5054822;28;20437;-79
2022/03/18 08:22:53;;;;;;;0.80;0.80;;;;;;;;;;5055527;28;21007;-80
2022/03/18 08:25:20;;;;;;;0.80;0.80;;;;;;;;;;5057144;28;20424;-81
2022/03/18 08:27:48;;;;;;;0.70;0.60;;;;;;;;;;5055466;28;20437;-80
2022/03/18 08:30:16;;;;;;;1.10;1.00;;;;;;;;;;5055719;28;20846;-80
2022/03/18 08:32:46;;;;;;;1.13;1.03;;;;;;;;;;5055040;28;20470;-78
2022/03/18 08:35:14;;;;;;;0.90;0.90;;;;;;;;;;5057671;28;20490;-79
2022/03/18 08:37:57;;;;;;;0.73;0.70;;;;;;;;;;5055225;28;20447;-79
2022/03/18 08:40:25;;;;;;;0.70;0.60;;;;;;;;;;5055953;28;20424;-78
2022/03/18 08:42:52;;;;;;;0.70;0.63;;;;;;;;;;5055640;28;20503;-81
2022/03/18 08:45:19;;;;;;;0.77;0.70;;;;;;;;;;5056506;28;20481;-79
2022/03/18 08:47:47;;;;;;;0.80;0.80;;;;;;;;;;5057411;28;21062;-80
2022/03/18 08:50:14;;;;;;;0.70;0.60;;;;;;;;;;5073273;28;20927;-80
2022/03/18 08:52:45;;;;;;;0.70;0.70;;;;;;;;;;5071589;28;20451;-80
2022/03/18 08:55:12;;;;;;;1.67;1.57;;;;;;;;;;5057902;28;20412;-78
2022/03/18 08:57:43;;;;;;;0.80;0.63;;;;;;;;;;5056918;28;20441;-80
2022/03/18 09:00:11;;;;;;;1.43;1.33;;;;;;;;;;5057795;28;20444;-81
2022/03/18 09:02:39;;;;;;;1.13;1.03;;;;;;;;;;5058975;28;20440;-80
2022/03/18 09:05:09;;;;;;;0.70;0.60;;;;;;;;;;5035384;28;20439;-78
2022/03/18 09:07:37;;;;;;;0.70;0.60;;;;;;;;;;5046648;28;20460;-79
2022/03/18 09:10:04;;;;;;;0.90;0.90;;;;;;;;;;5054454;28;20428;-80
2022/03/18 09:12:33;;;;;;;0.70;0.60;;;;;;;;;;5054986;28;20430;-79
2022/03/18 09:15:03;;;;;;;0.70;0.70;;;;;;;;;;5053695;28;20406;-81
2022/03/18 09:17:31;;;;;;;0.80;0.70;;;;;;;;;;5053997;28;20453;-80
2022/03/18 09:19:58;;;;;;;0.87;0.87;;;;;;;;;;5053886;28;20436;-80
2022/03/18 09:22:26;;;;;;;0.70;0.60;;;;;;;;;;5054895;28;20467;-79
2022/03/18 09:24:54;;;;;;;2.03;1.93;;;;;;;;;;5053666;28;20454;-80
2022/03/18 09:27:21;;;;;;;0.87;0.87;;;;;;;;;;5032277;28;20415;-79
2022/03/18 09:29:48;;;;;;;0.90;0.73;;;;;;;;;;5033400;28;20424;-80
2022/03/18 09:32:16;;;;;;;0.70;0.60;;;;;;;;;;5035217;28;20446;-78
2022/03/18 09:34:44;;;;;;;0.80;0.80;;;;;;;;;;5033634;28;20433;-79
2022/03/18 09:37:15;;;;;;;0.73;0.70;;;;;;;;;;5041412;28;20855;-78
2022/03/18 09:39:43;;;;;;;0.80;0.60;;;;;;;;;;5054886;28;20411;-78
2022/03/18 09:42:11;;;;;;;0.70;0.60;;;;;;;;;;5053469;28;20443;-79
2022/03/18 09:44:38;;;;;;;1.00;0.90;;;;;;;;;;5052365;28;20452;-79
2022/03/18 09:47:06;;;;;;;0.80;0.70;;;;;;;;;;5053565;28;20472;-78
2022/03/18 09:49:33;;;;;;;0.70;0.60;;;;;;;;;;5054723;28;20815;-77
2022/03/18 09:51:59;;;;;;;0.70;0.60;;;;;;;;;;5054439;28;20454;-78
2022/03/18 09:54:28;;;;;;;1.10;0.80;;;;;;;;;;5055150;28;20975;-78
2022/03/18 09:56:56;;;;;;;0.97;0.80;;;;;;;;;;5054379;28;20463;-78
2022/03/18 09:59:24;;;;;;;1.07;0.97;;;;;;;;;;5035784;28;20455;-76
2022/03/18 10:02:07;;;;;;;0.80;0.60;;;;;;;;;;5051768;28;20475;-78
2022/03/18 10:04:50;;;;;;;0.70;0.60;;;;;;;;;;5053943;28;20439;-77
2022/03/18 10:07:17;;;;;;;3.53;1.57;;;;;;;;;;5052336;28;20472;-76
2022/03/18 10:10:00;;;;;;;0.70;0.60;;;;;;;;;;5054191;28;20412;-77
2022/03/18 10:12:29;;;;;;;0.70;0.60;;;;;;;;;;5051653;28;20542;-77
2022/03/18 10:15:07;;;;;;;0.70;0.60;;;;;;;;;;5053385;28;20501;-76
2022/03/18 10:17:41;;;;;;;0.70;0.70;;;;;;;;;;5052842;28;20967;-77
2022/03/18 10:20:22;;;;;;;0.80;0.70;;;;;;;;;;5068453;28;20958;-76
2022/03/18 10:22:52;;;;;;;0.80;0.73;;;;;;;;;;5054029;28;20490;-77
2022/03/18 10:25:38;;;;;;;0.90;0.70;;;;;;;;;;5051027;28;20996;-76
2022/03/18 10:28:08;;;;;;;0.90;0.77;;;;;;;;;;5052785;28;20425;-76
2022/03/18 10:30:35;;;;;;;0.70;0.60;;;;;;;;;;5052787;28;20809;-75
2022/03/18 10:33:03;;;;;;;0.70;0.60;;;;;;;;;;5052351;28;20463;-78
2022/03/18 10:38:27;;;;;;;0.70;0.60;;;;;;;;;;5053224;28;20452;-76
2022/03/18 10:40:54;;;;;;;0.70;0.60;;;;;;;;;;5033691;28;20447;-77
2022/03/18 10:43:26;;;;;;;0.80;0.70;;;;;;;;;;5052573;28;20468;-75
2022/03/18 10:46:03;;;;;;;0.70;0.60;;;;;;;;;;5068367;28;20432;-76
2022/03/18 10:48:30;;;;;;;0.70;0.60;;;;;;;;;;5033104;28;20413;-76
2022/03/18 10:51:04;;;;;;;0.80;0.80;;;;;;;;;;5048893;28;20448;-76
2022/03/18 10:53:31;;;;;;;0.70;0.50;;;;;;;;;;5053057;28;20412;-76
2022/03/18 10:56:02;;;;;;;12.83;1.33;;;;;;;;;;5048623;28;20443;-76
2022/03/18 10:58:32;;;;;;;0.70;0.60;;;;;;;;;;5051106;28;20452;-76
2022/03/18 11:01:03;;;;;;;0.80;0.70;;;;;;;;;;5052265;28;20449;-76
2022/03/18 11:03:31;;;;;;;0.70;0.60;;;;;;;;;;5051682;28;20461;-77
2022/03/18 11:06:02;;;;;;;0.70;0.60;;;;;;;;;;5053452;28;20456;-77
2022/03/18 11:08:35;;;;;;;0.70;0.60;;;;;;;;;;5035748;28;20434;-76
2022/03/18 11:11:10;;;;;;;1.17;0.97;;;;;;;;;;5050222;28;20895;-77
2022/03/18 11:13:48;;;;;;;0.70;0.60;;;;;;;;;;5051752;28;20417;-77
2022/03/18 11:16:17;;;;;;;0.70;0.60;;;;;;;;;;5053270;28;20884;-75
2022/03/18 11:18:47;;;;;;;0.70;0.67;;;;;;;;;;5051619;28;20440;-79
2022/03/18 11:21:15;;;;;;;0.70;0.60;;;;;;;;;;5034932;28;20475;-77
2022/03/18 11:23:42;;;;;;;0.70;0.60;;;;;;;;;;5052222;28;20460;-77
2022/03/18 11:26:10;;;;;;;0.73;0.60;;;;;;;;;;5051175;28;20534;-77
2022/03/18 11:28:38;;;;;;;0.70;0.70;;;;;;;;;;5051704;28;20402;-77
2022/03/18 11:31:06;;;;;;;0.70;0.60;;;;;;;;;;5053476;28;20424;-77
2022/03/18 11:33:34;;;;;;;0.70;0.70;;;;;;;;;;5054077;28;20451;-74
2022/03/18 11:36:06;;;;;;;0.70;0.60;;;;;;;;;;5053056;28;20546;-77
2022/03/18 11:38:55;;;;;;;0.70;0.60;;;;;;;;;;5055750;28;20955;-77
2022/03/18 11:41:27;;;;;;;0.70;0.60;;;;;;;;;;5054815;28;20906;-77
2022/03/18 11:43:54;;;;;;;0.70;0.63;;;;;;;;;;5056971;28;20448;-78
2022/03/18 11:46:27;;;;;;;0.70;0.70;;;;;;;;;;5054806;28;20489;-76
2022/03/18 11:49:02;;;;;;;0.70;0.60;;;;;;;;;;5055721;28;20932;-77
2022/03/18 11:51:30;;;;;;;0.80;0.70;;;;;;;;;;5055279;28;20463;-76
2022/03/18 11:54:01;;;;;;;0.70;0.60;;;;;;;;;;5055504;28;20801;-76
2022/03/18 11:56:46;;;;;;;0.70;0.60;;;;;;;;;;5056650;28;20428;-75
2022/03/18 11:59:32;;;;;;;0.70;0.60;;;;;;;;;;5056730;28;20915;-76
2022/03/18 12:02:06;;;;;;;0.80;0.70;;;;;;;;;;5056823;28;20858;-77
2022/03/18 12:04:40;;;;;;;0.70;0.67;;;;;;;;;;5056370;28;20404;-76
2022/03/18 12:07:16;;;;;;;0.70;0.60;;;;;;;;;;5058212;28;21013;-75
2022/03/18 12:09:47;;;;;;;0.70;0.60;;;;;;;;;;5052519;28;20471;-75
2022/03/18 12:12:15;;;;;;;0.80;0.70;;;;;;;;;;5053897;28;20435;-75
2022/03/18 12:14:46;;;;;;;0.80;0.70;;;;;;;;;;5052007;28;20428;-77
2022/03/18 12:17:14;;;;;;;1.43;1.27;;;;;;;;;;5056119;28;20423;-77
2022/03/18 12:19:47;;;;;;;0.70;0.70;;;;;;;;;;5065607;28;20431;-78
2022/03/18 12:22:15;;;;;;;0.73;0.70;;;;;;;;;;5053689;28;20486;-77
2022/03/18 12:24:48;;;;;;;0.80;0.70;;;;;;;;;;5041899;28;20452;-77
2022/03/18 12:27:16;;;;;;;0.83;0.83;;;;;;;;;;5060437;28;20562;-77
2022/03/18 12:29:43;;;;;;;0.70;0.60;;;;;;;;;;5054805;28;20440;-76
2022/03/18 12:32:10;;;;;;;0.70;0.60;;;;;;;;;;5055481;28;20859;-79
2022/03/18 12:34:47;;;;;;;0.70;0.67;;;;;;;;;;5074042;28;20806;-77
2022/03/18 12:37:17;;;;;;;0.80;0.70;;;;;;;;;;5048245;28;20544;-79
2022/03/18 12:40:00;;;;;;;0.70;0.70;;;;;;;;;;5049338;28;20451;-79
2022/03/18 12:42:27;;;;;;;0.80;0.70;;;;;;;;;;5049074;28;20558;-79
2022/03/18 12:44:59;;;;;;;0.80;0.80;;;;;;;;;;5075638;28;20462;-76
2022/03/18 12:47:29;;;;;;;0.70;0.70;;;;;;;;;;5055498;28;20436;-75
2022/03/18 12:49:57;;;;;;;0.70;0.70;;;;;;;;;;5053247;28;20457;-77
2022/03/18 12:52:24;;;;;;;0.80;0.80;;;;;;;;;;5051443;28;20489;-80
2022/03/18 12:55:07;;;;;;;0.70;0.60;;;;;;;;;;5053722;28;20445;-78
2022/03/18 12:57:37;;;;;;;0.70;0.60;;;;;;;;;;5052402;28;20440;-79
2022/03/18 13:00:08;;;;;;;0.70;0.70;;;;;;;;;;5054848;28;20446;-79
2022/03/18 13:02:56;;;;;;;0.70;0.60;;;;;;;;;;5051352;28;20755;-78
2022/03/18 13:05:27;;;;;;;0.70;0.70;;;;;;;;;;5053718;28;20454;-78
2022/03/18 13:08:04;;;;;;;0.70;0.60;;;;;;;;;;5054263;28;20442;-79
2022/03/18 13:10:34;;;;;;;0.80;0.70;;;;;;;;;;5052733;28;20910;-79
2022/03/18 13:13:08;;;;;;;0.70;0.70;;;;;;;;;;5052680;28;20482;-77
2022/03/18 13:15:34;;;;;;;0.70;0.70;;;;;;;;;;5054359;28;20447;-77
2022/03/18 13:18:09;;;;;;;0.70;0.67;;;;;;;;;;5054909;28;20979;-76
2022/03/18 13:20:38;;;;;;;0.70;0.60;;;;;;;;;;5054153;28;21017;-78
2022/03/18 13:23:08;;;;;;;0.70;0.60;;;;;;;;;;5052948;28;20472;-79
2022/03/18 13:25:38;;;;;;;0.70;0.67;;;;;;;;;;5051592;28;20515;-78
2022/03/18 13:28:08;;;;;;;0.80;0.80;;;;;;;;;;5034065;28;20462;-77
2022/03/18 13:33:20;;;;;;;0.70;0.60;;;;;;;;;;5053725;28;20939;-78
2022/03/18 13:35:50;;;;;;;0.70;0.70;;;;;;;;;;5045942;28;20463;-77
2022/03/18 13:38:18;;;;;;;0.70;0.70;;;;;;;;;;5057136;28;20487;-78
2022/03/18 13:40:54;;;;;;;0.70;0.70;;;;;;;;;;5054072;28;20447;-78
2022/03/18 13:43:23;;;;;;;0.70;0.70;;;;;;;;;;5050960;28;20979;-78
2022/03/18 13:45:50;;;;;;;0.70;0.60;;;;;;;;;;5053093;28;20550;-77
2022/03/18 13:48:25;;;;;;;0.80;0.60;;;;;;;;;;5052823;28;20871;-77
2022/03/18 13:50:54;;;;;;;0.77;0.70;;;;;;;;;;5049920;28;20500;-78
2022/03/18 13:53:23;;;;;;;0.70;0.60;;;;;;;;;;5053096;28;20486;-79
2022/03/18 13:55:51;;;;;;;0.80;0.70;;;;;;;;;;5057581;28;20948;-77
2022/03/18 13:58:24;;;;;;;0.70;0.70;;;;;;;;;;5056700;28;20472;-79
2022/03/18 14:01:05;;;;;;;0.80;0.77;;;;;;;;;;5038274;28;20905;-78
2022/03/18 14:03:34;;;;;;;0.80;0.70;;;;;;;;;;5034657;28;20972;-80
2022/03/18 14:06:04;;;;;;;0.70;0.60;;;;;;;;;;5053443;28;20560;-80
2022/03/18 14:08:32;;;;;;;0.70;0.70;;;;;;;;;;5040082;28;20428;-77
2022/03/18 14:11:00;;;;;;;0.80;0.70;;;;;;;;;;5046922;28;20863;-76
2022/03/18 14:13:28;;;;;;;0.70;0.70;;;;;;;;;;5058370;28;20441;-72
2022/03/18 14:15:57;;;;;;;0.70;0.70;;;;;;;;;;5057358;28;20471;-74
2022/03/18 14:18:39;;;;;;;0.70;0.70;;;;;;;;;;5057523;28;20456;-74
2022/03/18 14:21:10;;;;;;;0.70;0.60;;;;;;;;;;5053398;28;20446;-76
2022/03/18 14:23:41;;;;;;;0.80;0.70;;;;;;;;;;5051557;28;20938;-76
2022/03/18 14:26:11;;;;;;;0.80;0.80;;;;;;;;;;5047341;28;20492;-75
2022/03/18 14:28:38;;;;;;;0.80;0.70;;;;;;;;;;5035617;28;20425;-77
2022/03/18 14:31:06;;;;;;;0.80;0.70;;;;;;;;;;5022199;28;20447;-76
2022/03/18 14:33:37;;;;;;;0.70;0.60;;;;;;;;;;5052176;28;20939;-74
2022/03/18 14:36:05;;;;;;;0.73;0.70;;;;;;;;;;5053485;28;20490;-74
2022/03/18 14:38:34;;;;;;;0.80;0.70;;;;;;;;;;5051749;28;20440;-75
2022/03/18 14:41:03;;;;;;;0.70;0.70;;;;;;;;;;5051943;28;20416;-74
2022/03/18 14:43:30;;;;;;;0.70;0.60;;;;;;;;;;5052674;28;20472;-74
2022/03/18 14:45:58;;;;;;;0.70;0.60;;;;;;;;;;5052114;28;20472;-74
2022/03/18 14:48:25;;;;;;;0.70;0.70;;;;;;;;;;5049908;28;20505;-75
2022/03/18 14:50:55;;;;;;;0.73;0.67;;;;;;;;;;5051279;28;20434;-75
2022/03/18 14:53:22;;;;;;;0.80;0.80;;;;;;;;;;5045702;28;21046;-73
2022/03/18 14:58:38;;;;;;;0.70;0.70;;;;;;;;;;5047793;28;20424;-75
2022/03/18 15:01:06;;;;;;;1.53;1.43;;;;;;;;;;5037089;28;21032;-76
2022/03/18 15:03:33;;;;;;;0.70;0.70;;;;;;;;;;5038339;28;20472;-74
2022/03/18 15:06:00;;;;;;;0.70;0.70;;;;;;;;;;5051616;28;20488;-78
2022/03/18 15:08:27;;;;;;;0.83;0.70;;;;;;;;;;5050746;28;20966;-74
2022/03/18 15:10:56;;;;;;;1.17;1.07;;;;;;;;;;5051413;28;20452;-73
2022/03/18 15:13:24;;;;;;;0.70;0.70;;;;;;;;;;5041458;28;20419;-73
2022/03/18 15:15:52;;;;;;;0.80;0.70;;;;;;;;;;5052145;28;20447;-75
2022/03/18 15:18:21;;;;;;;0.80;0.70;;;;;;;;;;5052135;28;20448;-75